sensor_id;sensor_type;location;lat;lon;timestamp;temperature;humidity
14099;DHT22;7126;48.458;7.930;2023-11-19T00:00:40;11.00;99.90
14099;DHT22;7126;48.458;7.930;2023-11-19T00:03:06;11.00;99.90
14099;DHT22;7126;48.458;7.930;2023-11-19T00:05:32;11.00;99.90
14099;DHT22;7126;48.458;7.930;2023-11-19T00:07:57;11.00;99.90
14099;DHT22;7126;48.458;7.930;2023-11-19T00:10:23;11.00;99.90
14099;DHT22;7126;48.458;7.930;2023-11-19T00:12:49;11.00;99.90
14099;DHT22;7126;48.458;7.930;2023-11-19T00:15:15;11.00;99.90
14099;DHT22;7126;48.458;7.930;2023-11-19T00:17:45;11.00;99.90
14099;DHT22;7126;48.458;7.930;2023-11-19T00:20:12;11.10;99.90
14099;DHT22;7126;48.458;7.930;2023-11-19T00:22:37;11.10;99.90
14099;DHT22;7126;48.458;7.930;2023-11-19T00:25:03;11.10;99.90
14099;DHT22;7126;48.458;7.930;2023-11-19T00:27:29;11.10;99.90
14099;DHT22;7126;48.458;7.930;2023-11-19T00:29:56;11.10;99.90
14099;DHT22;7126;48.458;7.930;2023-11-19T00:32:22;11.20;99.90
14099;DHT22;7126;48.458;7.930;2023-11-19T00:34:48;11.20;99.90
14099;DHT22;7126;48.458;7.930;2023-11-19T00:37:17;11.20;99.90
14099;DHT22;7126;48.458;7.930;2023-11-19T00:39:42;11.20;99.90
14099;DHT22;7126;48.458;7.930;2023-11-19T00:42:11;11.20;99.90
14099;DHT22;7126;48.458;7.930;2023-11-19T00:44:37;11.20;99.90
14099;DHT22;7126;48.458;7.930;2023-11-19T00:47:02;11.30;99.90
14099;DHT22;7126;48.458;7.930;2023-11-19T00:49:28;11.30;99.90
14099;DHT22;7126;48.458;7.930;2023-11-19T00:51:54;11.30;99.90
14099;DHT22;7126;48.458;7.930;2023-11-19T00:54:19;11.30;99.90
14099;DHT22;7126;48.458;7.930;2023-11-19T00:56:45;11.30;99.90
14099;DHT22;7126;48.458;7.930;2023-11-19T00:59:11;11.30;99.90
14099;DHT22;7126;48.458;7.930;2023-11-19T01:01:36;11.30;99.90
14099;DHT22;7126;48.458;7.930;2023-11-19T01:04:02;11.30;99.90
14099;DHT22;7126;48.458;7.930;2023-11-19T01:06:31;11.30;99.90
14099;DHT22;7126;48.458;7.930;2023-11-19T01:08:57;11.40;99.90
14099;DHT22;7126;48.458;7.930;2023-11-19T01:11:24;11.40;99.90
14099;DHT22;7126;48.458;7.930;2023-11-19T01:13:50;11.40;99.90
14099;DHT22;7126;48.458;7.930;2023-11-19T01:16:16;11.40;99.90
14099;DHT22;7126;48.458;7.930;2023-11-19T01:18:42;11.40;99.90
14099;DHT22;7126;48.458;7.930;2023-11-19T01:21:08;11.40;99.90
14099;DHT22;7126;48.458;7.930;2023-11-19T01:23:34;11.40;99.90
14099;DHT22;7126;48.458;7.930;2023-11-19T01:26:00;11.40;99.90
14099;DHT22;7126;48.458;7.930;2023-11-19T01:28:26;11.40;99.90
14099;DHT22;7126;48.458;7.930;2023-11-19T01:30:51;11.40;99.90
14099;DHT22;7126;48.458;7.930;2023-11-19T01:33:17;11.40;99.90
14099;DHT22;7126;48.458;7.930;2023-11-19T01:35:42;11.40;99.90
14099;DHT22;7126;48.458;7.930;2023-11-19T01:38:08;11.40;99.90
14099;DHT22;7126;48.458;7.930;2023-11-19T01:40:34;11.40;99.90
14099;DHT22;7126;48.458;7.930;2023-11-19T01:43:01;11.50;99.90
14099;DHT22;7126;48.458;7.930;2023-11-19T01:45:29;11.50;99.90
14099;DHT22;7126;48.458;7.930;2023-11-19T01:47:56;11.50;99.90
14099;DHT22;7126;48.458;7.930;2023-11-19T01:50:25;11.50;99.90
14099;DHT22;7126;48.458;7.930;2023-11-19T01:52:54;11.50;99.90
14099;DHT22;7126;48.458;7.930;2023-11-19T01:55:24;11.50;99.90
14099;DHT22;7126;48.458;7.930;2023-11-19T01:57:51;11.50;99.90
14099;DHT22;7126;48.458;7.930;2023-11-19T02:00:18;11.50;99.90
14099;DHT22;7126;48.458;7.930;2023-11-19T02:02:46;11.50;99.90
14099;DHT22;7126;48.458;7.930;2023-11-19T02:05:12;11.50;99.90
14099;DHT22;7126;48.458;7.930;2023-11-19T02:07:38;11.50;99.90
14099;DHT22;7126;48.458;7.930;2023-11-19T02:10:04;11.50;99.90
14099;DHT22;7126;48.458;7.930;2023-11-19T02:12:31;11.50;99.90
14099;DHT22;7126;48.458;7.930;2023-11-19T02:15:01;11.50;99.90
14099;DHT22;7126;48.458;7.930;2023-11-19T02:17:28;11.50;99.90
14099;DHT22;7126;48.458;7.930;2023-11-19T02:19:56;11.50;99.90
14099;DHT22;7126;48.458;7.930;2023-11-19T02:22:22;11.50;99.90
14099;DHT22;7126;48.458;7.930;2023-11-19T02:24:51;11.50;99.90
14099;DHT22;7126;48.458;7.930;2023-11-19T02:27:30;11.50;99.90
14099;DHT22;7126;48.458;7.930;2023-11-19T02:29:57;11.50;99.90
14099;DHT22;7126;48.458;7.930;2023-11-19T02:32:24;11.50;99.90
14099;DHT22;7126;48.458;7.930;2023-11-19T02:34:52;11.50;99.90
14099;DHT22;7126;48.458;7.930;2023-11-19T02:37:18;11.50;99.90
14099;DHT22;7126;48.458;7.930;2023-11-19T02:39:44;11.50;99.90
14099;DHT22;7126;48.458;7.930;2023-11-19T02:42:10;11.50;99.90
14099;DHT22;7126;48.458;7.930;2023-11-19T02:44:36;11.50;99.90
14099;DHT22;7126;48.458;7.930;2023-11-19T02:47:01;11.50;99.90
14099;DHT22;7126;48.458;7.930;2023-11-19T02:49:28;11.50;99.90
14099;DHT22;7126;48.458;7.930;2023-11-19T02:51:54;11.50;99.90
14099;DHT22;7126;48.458;7.930;2023-11-19T02:54:19;11.50;99.90
14099;DHT22;7126;48.458;7.930;2023-11-19T02:56:46;11.50;99.90
14099;DHT22;7126;48.458;7.930;2023-11-19T02:59:20;11.50;99.90
14099;DHT22;7126;48.458;7.930;2023-11-19T03:01:53;11.50;99.90
14099;DHT22;7126;48.458;7.930;2023-11-19T03:04:18;11.50;99.90
14099;DHT22;7126;48.458;7.930;2023-11-19T03:06:45;11.50;99.90
14099;DHT22;7126;48.458;7.930;2023-11-19T03:09:11;11.50;99.90
14099;DHT22;7126;48.458;7.930;2023-11-19T03:11:37;11.50;99.90
14099;DHT22;7126;48.458;7.930;2023-11-19T03:14:02;11.50;99.90
14099;DHT22;7126;48.458;7.930;2023-11-19T03:16:31;11.50;99.90
14099;DHT22;7126;48.458;7.930;2023-11-19T03:18:57;11.50;99.90
14099;DHT22;7126;48.458;7.930;2023-11-19T03:21:29;11.50;99.90
14099;DHT22;7126;48.458;7.930;2023-11-19T03:23:54;11.60;99.90
14099;DHT22;7126;48.458;7.930;2023-11-19T03:26:21;11.60;99.90
14099;DHT22;7126;48.458;7.930;2023-11-19T03:28:47;11.60;99.90
14099;DHT22;7126;48.458;7.930;2023-11-19T03:31:14;11.60;99.90
14099;DHT22;7126;48.458;7.930;2023-11-19T03:33:39;11.60;99.90
14099;DHT22;7126;48.458;7.930;2023-11-19T03:36:05;11.60;99.90
14099;DHT22;7126;48.458;7.930;2023-11-19T03:38:31;11.60;99.90
14099;DHT22;7126;48.458;7.930;2023-11-19T03:40:57;11.60;99.90
14099;DHT22;7126;48.458;7.930;2023-11-19T03:43:22;11.60;99.90
14099;DHT22;7126;48.458;7.930;2023-11-19T03:45:48;11.60;99.90
14099;DHT22;7126;48.458;7.930;2023-11-19T03:48:14;11.60;99.90
14099;DHT22;7126;48.458;7.930;2023-11-19T03:50:41;11.60;99.90
14099;DHT22;7126;48.458;7.930;2023-11-19T03:53:07;11.70;99.90
14099;DHT22;7126;48.458;7.930;2023-11-19T03:55:32;11.70;99.90
14099;DHT22;7126;48.458;7.930;2023-11-19T03:57:58;11.70;99.90
14099;DHT22;7126;48.458;7.930;2023-11-19T04:00:23;11.70;99.90
14099;DHT22;7126;48.458;7.930;2023-11-19T04:02:49;11.70;99.90
14099;DHT22;7126;48.458;7.930;2023-11-19T04:05:14;11.80;99.90
14099;DHT22;7126;48.458;7.930;2023-11-19T04:07:40;11.80;99.90
14099;DHT22;7126;48.458;7.930;2023-11-19T04:10:06;11.80;99.90
14099;DHT22;7126;48.458;7.930;2023-11-19T04:12:31;11.80;99.90
14099;DHT22;7126;48.458;7.930;2023-11-19T04:14:57;11.80;99.90
14099;DHT22;7126;48.458;7.930;2023-11-19T04:17:22;11.80;99.90
14099;DHT22;7126;48.458;7.930;2023-11-19T04:19:48;11.80;99.90
14099;DHT22;7126;48.458;7.930;2023-11-19T04:22:14;11.80;99.90
14099;DHT22;7126;48.458;7.930;2023-11-19T04:24:39;11.80;99.90
14099;DHT22;7126;48.458;7.930;2023-11-19T04:27:06;11.90;99.90
14099;DHT22;7126;48.458;7.930;2023-11-19T04:29:31;11.90;99.90
14099;DHT22;7126;48.458;7.930;2023-11-19T04:31:57;11.90;99.90
14099;DHT22;7126;48.458;7.930;2023-11-19T04:34:23;11.90;99.90
14099;DHT22;7126;48.458;7.930;2023-11-19T04:36:49;11.90;99.90
14099;DHT22;7126;48.458;7.930;2023-11-19T04:39:14;11.90;99.90
14099;DHT22;7126;48.458;7.930;2023-11-19T04:41:51;12.00;99.90
14099;DHT22;7126;48.458;7.930;2023-11-19T04:44:19;11.90;99.90
14099;DHT22;7126;48.458;7.930;2023-11-19T04:46:45;11.90;99.90
14099;DHT22;7126;48.458;7.930;2023-11-19T04:49:13;12.00;99.90
14099;DHT22;7126;48.458;7.930;2023-11-19T04:51:44;12.00;99.90
14099;DHT22;7126;48.458;7.930;2023-11-19T04:54:12;12.00;99.90
14099;DHT22;7126;48.458;7.930;2023-11-19T04:56:38;12.00;99.90
14099;DHT22;7126;48.458;7.930;2023-11-19T04:59:06;12.00;99.90
14099;DHT22;7126;48.458;7.930;2023-11-19T05:01:32;12.00;99.90
14099;DHT22;7126;48.458;7.930;2023-11-19T05:03:58;12.00;99.90
14099;DHT22;7126;48.458;7.930;2023-11-19T05:06:28;12.00;99.90
14099;DHT22;7126;48.458;7.930;2023-11-19T05:08:54;12.00;99.90
14099;DHT22;7126;48.458;7.930;2023-11-19T05:11:20;12.00;99.90
14099;DHT22;7126;48.458;7.930;2023-11-19T05:13:46;12.00;99.90
14099;DHT22;7126;48.458;7.930;2023-11-19T05:16:12;12.10;99.90
14099;DHT22;7126;48.458;7.930;2023-11-19T05:18:40;12.10;99.90
14099;DHT22;7126;48.458;7.930;2023-11-19T05:21:06;12.10;99.90
14099;DHT22;7126;48.458;7.930;2023-11-19T05:23:32;12.10;99.90
14099;DHT22;7126;48.458;7.930;2023-11-19T05:26:00;12.10;99.90
14099;DHT22;7126;48.458;7.930;2023-11-19T05:28:25;12.10;99.90
14099;DHT22;7126;48.458;7.930;2023-11-19T05:30:51;12.10;99.90
14099;DHT22;7126;48.458;7.930;2023-11-19T05:33:17;12.20;99.90
14099;DHT22;7126;48.458;7.930;2023-11-19T05:35:42;12.20;99.90
14099;DHT22;7126;48.458;7.930;2023-11-19T05:38:08;12.10;99.90
14099;DHT22;7126;48.458;7.930;2023-11-19T05:40:35;12.10;99.90
14099;DHT22;7126;48.458;7.930;2023-11-19T05:43:00;12.10;99.90
14099;DHT22;7126;48.458;7.930;2023-11-19T05:45:26;12.20;99.90
14099;DHT22;7126;48.458;7.930;2023-11-19T05:47:51;12.20;99.90
14099;DHT22;7126;48.458;7.930;2023-11-19T05:50:18;12.20;99.90
14099;DHT22;7126;48.458;7.930;2023-11-19T05:52:44;12.20;99.90
14099;DHT22;7126;48.458;7.930;2023-11-19T05:55:09;12.20;99.90
14099;DHT22;7126;48.458;7.930;2023-11-19T05:57:38;12.20;99.90
14099;DHT22;7126;48.458;7.930;2023-11-19T06:00:06;12.20;99.90
14099;DHT22;7126;48.458;7.930;2023-11-19T06:02:34;12.20;99.90
14099;DHT22;7126;48.458;7.930;2023-11-19T06:05:00;12.20;99.90
14099;DHT22;7126;48.458;7.930;2023-11-19T06:07:27;12.20;99.90
14099;DHT22;7126;48.458;7.930;2023-11-19T06:09:53;12.20;99.90
14099;DHT22;7126;48.458;7.930;2023-11-19T06:12:18;12.20;99.90
14099;DHT22;7126;48.458;7.930;2023-11-19T06:14:44;12.30;99.90
14099;DHT22;7126;48.458;7.930;2023-11-19T06:17:09;12.30;99.90
14099;DHT22;7126;48.458;7.930;2023-11-19T06:19:36;12.30;99.90
14099;DHT22;7126;48.458;7.930;2023-11-19T06:22:03;12.30;99.90
14099;DHT22;7126;48.458;7.930;2023-11-19T06:24:29;12.30;99.90
14099;DHT22;7126;48.458;7.930;2023-11-19T06:26:54;12.30;99.90
14099;DHT22;7126;48.458;7.930;2023-11-19T06:29:19;12.30;99.90
14099;DHT22;7126;48.458;7.930;2023-11-19T06:31:45;12.30;99.90
14099;DHT22;7126;48.458;7.930;2023-11-19T06:34:14;12.30;99.90
14099;DHT22;7126;48.458;7.930;2023-11-19T06:36:39;12.40;99.90
14099;DHT22;7126;48.458;7.930;2023-11-19T06:39:05;12.40;99.90
14099;DHT22;7126;48.458;7.930;2023-11-19T06:41:31;12.40;99.90
14099;DHT22;7126;48.458;7.930;2023-11-19T06:43:56;12.40;99.90
14099;DHT22;7126;48.458;7.930;2023-11-19T06:46:22;12.40;99.90
14099;DHT22;7126;48.458;7.930;2023-11-19T06:48:47;12.50;99.90
14099;DHT22;7126;48.458;7.930;2023-11-19T06:51:13;12.40;99.90
14099;DHT22;7126;48.458;7.930;2023-11-19T06:53:39;12.40;99.90
14099;DHT22;7126;48.458;7.930;2023-11-19T06:56:20;12.50;99.90
14099;DHT22;7126;48.458;7.930;2023-11-19T06:58:46;12.50;99.90
14099;DHT22;7126;48.458;7.930;2023-11-19T07:01:14;12.50;99.90
14099;DHT22;7126;48.458;7.930;2023-11-19T07:03:40;12.50;99.90
14099;DHT22;7126;48.458;7.930;2023-11-19T07:06:06;12.50;99.90
14099;DHT22;7126;48.458;7.930;2023-11-19T07:08:31;12.50;99.90
14099;DHT22;7126;48.458;7.930;2023-11-19T07:10:56;12.50;99.90
14099;DHT22;7126;48.458;7.930;2023-11-19T07:13:22;12.60;99.90
14099;DHT22;7126;48.458;7.930;2023-11-19T07:15:47;12.60;99.90
14099;DHT22;7126;48.458;7.930;2023-11-19T07:18:13;12.60;99.90
14099;DHT22;7126;48.458;7.930;2023-11-19T07:20:39;12.60;99.90
14099;DHT22;7126;48.458;7.930;2023-11-19T07:23:05;12.60;99.90
14099;DHT22;7126;48.458;7.930;2023-11-19T07:25:31;12.60;99.90
14099;DHT22;7126;48.458;7.930;2023-11-19T07:27:56;12.60;99.90
14099;DHT22;7126;48.458;7.930;2023-11-19T07:30:22;12.70;99.90
14099;DHT22;7126;48.458;7.930;2023-11-19T07:32:48;12.70;99.90
14099;DHT22;7126;48.458;7.930;2023-11-19T07:35:14;12.70;99.90
14099;DHT22;7126;48.458;7.930;2023-11-19T07:37:41;12.70;99.90
14099;DHT22;7126;48.458;7.930;2023-11-19T07:40:07;12.70;99.90
14099;DHT22;7126;48.458;7.930;2023-11-19T07:42:33;12.70;99.90
14099;DHT22;7126;48.458;7.930;2023-11-19T07:44:59;12.70;99.90
14099;DHT22;7126;48.458;7.930;2023-11-19T07:47:24;12.80;99.90
14099;DHT22;7126;48.458;7.930;2023-11-19T07:49:50;12.80;99.90
14099;DHT22;7126;48.458;7.930;2023-11-19T07:52:16;12.80;99.90
14099;DHT22;7126;48.458;7.930;2023-11-19T07:54:41;12.80;99.90
14099;DHT22;7126;48.458;7.930;2023-11-19T07:57:07;12.80;99.90
14099;DHT22;7126;48.458;7.930;2023-11-19T07:59:32;12.80;99.90
14099;DHT22;7126;48.458;7.930;2023-11-19T08:01:58;12.80;99.90
14099;DHT22;7126;48.458;7.930;2023-11-19T08:04:23;12.80;99.90
14099;DHT22;7126;48.458;7.930;2023-11-19T08:06:49;12.90;99.90
14099;DHT22;7126;48.458;7.930;2023-11-19T08:09:14;12.90;99.90
14099;DHT22;7126;48.458;7.930;2023-11-19T08:11:41;12.80;99.90
14099;DHT22;7126;48.458;7.930;2023-11-19T08:14:06;12.90;99.90
14099;DHT22;7126;48.458;7.930;2023-11-19T08:16:32;12.90;99.90
14099;DHT22;7126;48.458;7.930;2023-11-19T08:18:57;12.90;99.90
14099;DHT22;7126;48.458;7.930;2023-11-19T08:21:23;12.90;99.90
14099;DHT22;7126;48.458;7.930;2023-11-19T08:23:49;12.90;99.90
14099;DHT22;7126;48.458;7.930;2023-11-19T08:26:15;12.90;99.90
14099;DHT22;7126;48.458;7.930;2023-11-19T08:28:41;12.90;99.90
14099;DHT22;7126;48.458;7.930;2023-11-19T08:31:06;12.90;99.90
14099;DHT22;7126;48.458;7.930;2023-11-19T08:33:32;12.90;99.90
14099;DHT22;7126;48.458;7.930;2023-11-19T08:35:58;12.90;99.90
14099;DHT22;7126;48.458;7.930;2023-11-19T08:38:24;12.90;99.90
14099;DHT22;7126;48.458;7.930;2023-11-19T08:40:50;12.90;99.90
14099;DHT22;7126;48.458;7.930;2023-11-19T08:43:15;12.90;99.90
14099;DHT22;7126;48.458;7.930;2023-11-19T08:45:41;13.00;99.90
14099;DHT22;7126;48.458;7.930;2023-11-19T08:48:07;13.00;99.90
14099;DHT22;7126;48.458;7.930;2023-11-19T08:50:32;13.00;99.90
14099;DHT22;7126;48.458;7.930;2023-11-19T08:52:58;13.00;99.90
14099;DHT22;7126;48.458;7.930;2023-11-19T08:55:23;13.00;99.90
14099;DHT22;7126;48.458;7.930;2023-11-19T08:57:49;13.00;99.90
14099;DHT22;7126;48.458;7.930;2023-11-19T09:00:14;13.00;99.90
14099;DHT22;7126;48.458;7.930;2023-11-19T09:02:40;13.10;99.90
14099;DHT22;7126;48.458;7.930;2023-11-19T09:05:06;13.10;99.90
14099;DHT22;7126;48.458;7.930;2023-11-19T09:07:33;13.10;99.90
14099;DHT22;7126;48.458;7.930;2023-11-19T09:09:58;13.10;99.90
14099;DHT22;7126;48.458;7.930;2023-11-19T09:12:24;13.10;99.90
14099;DHT22;7126;48.458;7.930;2023-11-19T09:14:49;13.10;99.90
14099;DHT22;7126;48.458;7.930;2023-11-19T09:17:15;13.10;99.90
14099;DHT22;7126;48.458;7.930;2023-11-19T09:19:41;13.20;99.90
14099;DHT22;7126;48.458;7.930;2023-11-19T09:22:07;13.20;99.90
14099;DHT22;7126;48.458;7.930;2023-11-19T09:24:33;13.20;99.90
14099;DHT22;7126;48.458;7.930;2023-11-19T09:26:59;13.20;99.90
14099;DHT22;7126;48.458;7.930;2023-11-19T09:29:25;13.20;99.90
14099;DHT22;7126;48.458;7.930;2023-11-19T09:31:51;13.20;99.90
14099;DHT22;7126;48.458;7.930;2023-11-19T09:34:17;13.30;99.90
14099;DHT22;7126;48.458;7.930;2023-11-19T09:36:42;13.30;99.90
14099;DHT22;7126;48.458;7.930;2023-11-19T09:39:10;13.30;99.90
14099;DHT22;7126;48.458;7.930;2023-11-19T09:41:36;13.30;99.90
14099;DHT22;7126;48.458;7.930;2023-11-19T09:44:01;13.30;99.90
14099;DHT22;7126;48.458;7.930;2023-11-19T09:46:27;13.30;99.90
14099;DHT22;7126;48.458;7.930;2023-11-19T09:48:53;13.30;99.90
14099;DHT22;7126;48.458;7.930;2023-11-19T09:51:20;13.30;99.90
14099;DHT22;7126;48.458;7.930;2023-11-19T09:53:45;13.30;99.90
14099;DHT22;7126;48.458;7.930;2023-11-19T09:56:12;13.30;99.90
14099;DHT22;7126;48.458;7.930;2023-11-19T09:58:38;13.40;99.90
14099;DHT22;7126;48.458;7.930;2023-11-19T10:01:04;13.40;99.90
14099;DHT22;7126;48.458;7.930;2023-11-19T10:03:35;13.40;99.90
14099;DHT22;7126;48.458;7.930;2023-11-19T10:06:03;13.40;99.90
14099;DHT22;7126;48.458;7.930;2023-11-19T10:08:30;13.40;99.90
14099;DHT22;7126;48.458;7.930;2023-11-19T10:10:55;13.40;99.90
14099;DHT22;7126;48.458;7.930;2023-11-19T10:13:26;13.50;99.90
14099;DHT22;7126;48.458;7.930;2023-11-19T10:15:52;13.50;99.90
14099;DHT22;7126;48.458;7.930;2023-11-19T10:18:18;13.50;99.90
14099;DHT22;7126;48.458;7.930;2023-11-19T10:20:43;13.40;99.90
14099;DHT22;7126;48.458;7.930;2023-11-19T10:23:10;13.50;99.90
14099;DHT22;7126;48.458;7.930;2023-11-19T10:25:36;13.50;99.90
14099;DHT22;7126;48.458;7.930;2023-11-19T10:28:02;13.50;99.90
14099;DHT22;7126;48.458;7.930;2023-11-19T10:30:30;13.50;99.90
14099;DHT22;7126;48.458;7.930;2023-11-19T10:35:34;13.50;99.90
14099;DHT22;7126;48.458;7.930;2023-11-19T10:38:01;13.50;99.90
14099;DHT22;7126;48.458;7.930;2023-11-19T10:40:39;13.50;99.90
14099;DHT22;7126;48.458;7.930;2023-11-19T10:43:06;13.50;99.90
14099;DHT22;7126;48.458;7.930;2023-11-19T10:45:33;13.60;99.90
14099;DHT22;7126;48.458;7.930;2023-11-19T10:47:59;13.60;99.90
14099;DHT22;7126;48.458;7.930;2023-11-19T10:50:25;13.60;99.90
14099;DHT22;7126;48.458;7.930;2023-11-19T10:52:55;13.80;99.90
14099;DHT22;7126;48.458;7.930;2023-11-19T10:55:45;14.00;99.90
14099;DHT22;7126;48.458;7.930;2023-11-19T10:58:15;14.30;99.90
14099;DHT22;7126;48.458;7.930;2023-11-19T11:00:45;14.60;99.90
14099;DHT22;7126;48.458;7.930;2023-11-19T11:03:20;14.70;99.90
14099;DHT22;7126;48.458;7.930;2023-11-19T11:05:50;14.80;99.90
14099;DHT22;7126;48.458;7.930;2023-11-19T11:08:17;14.80;99.90
14099;DHT22;7126;48.458;7.930;2023-11-19T11:13:17;14.80;99.90
14099;DHT22;7126;48.458;7.930;2023-11-19T11:15:44;14.80;99.90
14099;DHT22;7126;48.458;7.930;2023-11-19T11:18:12;14.70;99.90
14099;DHT22;7126;48.458;7.930;2023-11-19T11:20:39;14.70;99.90
14099;DHT22;7126;48.458;7.930;2023-11-19T11:39:28;14.40;99.90
14099;DHT22;7126;48.458;7.930;2023-11-19T11:45:13;14.50;99.90
14099;DHT22;7126;48.458;7.930;2023-11-19T11:50:09;14.50;99.90
14099;DHT22;7126;48.458;7.930;2023-11-19T11:56:11;14.60;99.90
14099;DHT22;7126;48.458;7.930;2023-11-19T11:58:12;14.60;99.90
14099;DHT22;7126;48.458;7.930;2023-11-19T12:00:41;14.70;99.90
14099;DHT22;7126;48.458;7.930;2023-11-19T12:03:11;14.70;99.90
14099;DHT22;7126;48.458;7.930;2023-11-19T12:05:44;14.80;99.90
14099;DHT22;7126;48.458;7.930;2023-11-19T12:08:11;14.80;99.90
14099;DHT22;7126;48.458;7.930;2023-11-19T12:10:44;14.80;99.90
14099;DHT22;7126;48.458;7.930;2023-11-19T12:13:10;14.80;99.90
14099;DHT22;7126;48.458;7.930;2023-11-19T12:18:23;15.00;99.90
14099;DHT22;7126;48.458;7.930;2023-11-19T12:20:49;14.90;99.90
14099;DHT22;7126;48.458;7.930;2023-11-19T12:23:15;14.90;99.90
14099;DHT22;7126;48.458;7.930;2023-11-19T12:25:40;15.00;99.90
14099;DHT22;7126;48.458;7.930;2023-11-19T12:28:11;15.20;99.90
14099;DHT22;7126;48.458;7.930;2023-11-19T12:30:37;15.30;99.90
14099;DHT22;7126;48.458;7.930;2023-11-19T12:33:08;15.90;99.90
14099;DHT22;7126;48.458;7.930;2023-11-19T12:35:47;16.30;99.90
14099;DHT22;7126;48.458;7.930;2023-11-19T12:40:46;17.10;99.90
14099;DHT22;7126;48.458;7.930;2023-11-19T12:43:21;17.40;99.90
14099;DHT22;7126;48.458;7.930;2023-11-19T12:45:47;18.20;99.90
14099;DHT22;7126;48.458;7.930;2023-11-19T12:48:13;18.40;99.90
14099;DHT22;7126;48.458;7.930;2023-11-19T12:50:55;18.60;99.90
14099;DHT22;7126;48.458;7.930;2023-11-19T12:53:22;19.00;99.90
14099;DHT22;7126;48.458;7.930;2023-11-19T12:55:48;19.80;99.90
14099;DHT22;7126;48.458;7.930;2023-11-19T12:58:36;20.60;99.90
14099;DHT22;7126;48.458;7.930;2023-11-19T13:01:07;21.20;99.90
14099;DHT22;7126;48.458;7.930;2023-11-19T13:08:41;22.00;99.90
14099;DHT22;7126;48.458;7.930;2023-11-19T13:11:07;21.30;99.90
14099;DHT22;7126;48.458;7.930;2023-11-19T13:13:53;21.00;99.90
14099;DHT22;7126;48.458;7.930;2023-11-19T13:16:18;20.80;99.90
14099;DHT22;7126;48.458;7.930;2023-11-19T13:18:44;21.90;99.90
14099;DHT22;7126;48.458;7.930;2023-11-19T13:21:10;24.20;99.90
14099;DHT22;7126;48.458;7.930;2023-11-19T13:23:35;26.10;99.90
14099;DHT22;7126;48.458;7.930;2023-11-19T13:26:01;27.00;99.90
14099;DHT22;7126;48.458;7.930;2023-11-19T13:28:26;27.40;99.90
14099;DHT22;7126;48.458;7.930;2023-11-19T13:30:52;27.50;99.90
14099;DHT22;7126;48.458;7.930;2023-11-19T13:33:19;27.20;99.90
14099;DHT22;7126;48.458;7.930;2023-11-19T13:35:44;26.80;99.90
14099;DHT22;7126;48.458;7.930;2023-11-19T13:38:10;27.10;99.90
14099;DHT22;7126;48.458;7.930;2023-11-19T13:40:36;29.30;99.90
14099;DHT22;7126;48.458;7.930;2023-11-19T13:43:02;32.10;97.00
14099;DHT22;7126;48.458;7.930;2023-11-19T13:45:28;34.40;91.40
14099;DHT22;7126;48.458;7.930;2023-11-19T13:47:53;36.10;83.40
14099;DHT22;7126;48.458;7.930;2023-11-19T13:50:19;37.50;73.10
14099;DHT22;7126;48.458;7.930;2023-11-19T13:52:45;37.60;70.40
14099;DHT22;7126;48.458;7.930;2023-11-19T13:55:12;37.00;69.80
14099;DHT22;7126;48.458;7.930;2023-11-19T13:57:39;35.80;73.00
14099;DHT22;7126;48.458;7.930;2023-11-19T14:00:07;33.40;78.20
14099;DHT22;7126;48.458;7.930;2023-11-19T14:02:42;32.00;80.40
14099;DHT22;7126;48.458;7.930;2023-11-19T14:05:08;30.50;83.70
14099;DHT22;7126;48.458;7.930;2023-11-19T14:07:35;29.00;86.10
14099;DHT22;7126;48.458;7.930;2023-11-19T14:10:00;27.10;92.40
14099;DHT22;7126;48.458;7.930;2023-11-19T14:12:26;25.20;96.20
14099;DHT22;7126;48.458;7.930;2023-11-19T14:14:51;23.60;99.60
14099;DHT22;7126;48.458;7.930;2023-11-19T14:17:17;22.20;99.90
14099;DHT22;7126;48.458;7.930;2023-11-19T14:19:44;21.10;99.90
14099;DHT22;7126;48.458;7.930;2023-11-19T14:22:10;20.20;99.90
14099;DHT22;7126;48.458;7.930;2023-11-19T14:24:35;19.40;99.90
14099;DHT22;7126;48.458;7.930;2023-11-19T14:27:01;18.90;99.90
14099;DHT22;7126;48.458;7.930;2023-11-19T14:29:27;18.50;99.90
14099;DHT22;7126;48.458;7.930;2023-11-19T14:31:56;18.20;99.90
14099;DHT22;7126;48.458;7.930;2023-11-19T14:34:22;17.80;99.90
14099;DHT22;7126;48.458;7.930;2023-11-19T14:36:48;17.50;99.90
14099;DHT22;7126;48.458;7.930;2023-11-19T14:39:14;17.30;99.90
14099;DHT22;7126;48.458;7.930;2023-11-19T14:41:39;17.10;99.90
14099;DHT22;7126;48.458;7.930;2023-11-19T14:44:05;16.80;99.90
14099;DHT22;7126;48.458;7.930;2023-11-19T14:46:31;16.70;99.90
14099;DHT22;7126;48.458;7.930;2023-11-19T14:48:56;16.60;99.90
14099;DHT22;7126;48.458;7.930;2023-11-19T14:51:22;16.50;99.90
14099;DHT22;7126;48.458;7.930;2023-11-19T14:53:48;16.40;99.90
14099;DHT22;7126;48.458;7.930;2023-11-19T14:56:13;16.30;99.90
14099;DHT22;7126;48.458;7.930;2023-11-19T14:58:39;16.30;99.90
14099;DHT22;7126;48.458;7.930;2023-11-19T15:01:06;16.20;99.90
14099;DHT22;7126;48.458;7.930;2023-11-19T15:03:32;16.10;99.90
14099;DHT22;7126;48.458;7.930;2023-11-19T15:05:58;16.00;99.90
14099;DHT22;7126;48.458;7.930;2023-11-19T15:08:24;15.90;99.90
14099;DHT22;7126;48.458;7.930;2023-11-19T15:10:49;15.90;99.90
14099;DHT22;7126;48.458;7.930;2023-11-19T15:13:15;15.70;99.90
14099;DHT22;7126;48.458;7.930;2023-11-19T15:15:41;15.70;99.90
14099;DHT22;7126;48.458;7.930;2023-11-19T15:18:07;15.60;99.90
14099;DHT22;7126;48.458;7.930;2023-11-19T15:20:32;15.50;99.90
14099;DHT22;7126;48.458;7.930;2023-11-19T15:22:58;15.40;99.90
14099;DHT22;7126;48.458;7.930;2023-11-19T15:25:24;15.40;99.90
14099;DHT22;7126;48.458;7.930;2023-11-19T15:27:50;15.40;99.90
14099;DHT22;7126;48.458;7.930;2023-11-19T15:30:15;15.40;99.90
14099;DHT22;7126;48.458;7.930;2023-11-19T15:32:41;15.30;99.90
14099;DHT22;7126;48.458;7.930;2023-11-19T15:35:08;15.30;99.90
14099;DHT22;7126;48.458;7.930;2023-11-19T15:37:34;15.20;99.90
14099;DHT22;7126;48.458;7.930;2023-11-19T15:40:00;15.20;99.90
14099;DHT22;7126;48.458;7.930;2023-11-19T15:42:25;15.20;99.90
14099;DHT22;7126;48.458;7.930;2023-11-19T15:44:52;15.10;99.90
14099;DHT22;7126;48.458;7.930;2023-11-19T15:47:17;15.10;99.90
14099;DHT22;7126;48.458;7.930;2023-11-19T15:49:43;15.10;99.90
14099;DHT22;7126;48.458;7.930;2023-11-19T15:52:10;15.10;99.90
14099;DHT22;7126;48.458;7.930;2023-11-19T15:54:36;15.10;99.90
14099;DHT22;7126;48.458;7.930;2023-11-19T15:57:02;15.10;99.90
14099;DHT22;7126;48.458;7.930;2023-11-19T15:59:28;15.00;99.90
14099;DHT22;7126;48.458;7.930;2023-11-19T16:01:53;15.00;99.90
14099;DHT22;7126;48.458;7.930;2023-11-19T16:04:19;15.00;99.90
14099;DHT22;7126;48.458;7.930;2023-11-19T16:06:44;15.00;99.90
14099;DHT22;7126;48.458;7.930;2023-11-19T16:09:10;15.00;99.90
14099;DHT22;7126;48.458;7.930;2023-11-19T16:11:40;15.00;99.90
14099;DHT22;7126;48.458;7.930;2023-11-19T16:14:09;14.90;99.90
14099;DHT22;7126;48.458;7.930;2023-11-19T16:16:35;14.90;99.90
14099;DHT22;7126;48.458;7.930;2023-11-19T16:19:00;14.90;99.90
14099;DHT22;7126;48.458;7.930;2023-11-19T16:21:26;14.90;99.90